Time;durP1;ratioP1;P1;durP2;ratioP2;P2;SDS_P1;SDS_P2;PMS_P1;PMS_P2;Temp;Humidity;BMP_temperature;BMP_pressure;BME280_temperature;BME280_humidity;BME280_pressure;Samples;Min_cycle;Max_cycle;Signal;HPM_P1;HPM_P2
2021/05/16 00:01:12;;;;;;;3.70;2.00;;;;;;;11.91;84.62;98260.56;5092884;28;20196;-74
2021/05/16 00:03:39;;;;;;;5.97;2.30;;;;;;;12.05;84.38;98259.38;5093573;28;20296;-73
2021/05/16 00:06:06;;;;;;;8.10;2.40;;;;;;;11.96;84.50;98257.47;5093150;28;20315;-74
2021/05/16 00:08:32;;;;;;;3.60;2.20;;;;;;;12.01;84.31;98255.25;5092993;28;20240;-74
2021/05/16 00:10:59;;;;;;;4.03;2.53;;;;;;;11.92;84.33;98253.31;5093261;28;20268;-72
2021/05/16 00:13:26;;;;;;;3.03;2.10;;;;;;;11.92;84.38;98250.63;5093277;28;20207;-72
2021/05/16 00:15:52;;;;;;;2.45;1.92;;;;;;;11.94;84.17;98246.81;5093251;28;20181;-73
2021/05/16 00:18:19;;;;;;;4.28;2.38;;;;;;;11.94;84.14;98243.25;5093077;28;20188;-73
2021/05/16 00:20:45;;;;;;;3.78;1.73;;;;;;;11.86;84.25;98239.34;5092993;28;20628;-73
2021/05/16 00:23:11;;;;;;;2.00;1.80;;;;;;;11.64;85.77;98240.28;5093471;28;20274;-72
2021/05/16 00:25:38;;;;;;;4.05;2.10;;;;;;;11.67;85.91;98245.44;5096435;28;20299;-75
2021/05/16 00:28:05;;;;;;;3.35;1.70;;;;;;;11.74;85.42;98235.00;5096368;28;20204;-73
2021/05/16 00:30:32;;;;;;;3.70;1.70;;;;;;;11.79;85.49;98240.00;5095179;28;20207;-74
2021/05/16 00:33:00;;;;;;;1.75;1.40;;;;;;;11.87;84.90;98238.41;5096689;28;20701;-72
2021/05/16 00:35:29;;;;;;;4.47;2.00;;;;;;;11.81;85.01;98241.56;5096637;28;20223;-73
2021/05/16 00:37:56;;;;;;;5.40;1.45;;;;;;;11.83;84.51;98238.75;5096461;28;20291;-72
2021/05/16 00:40:22;;;;;;;2.92;1.63;;;;;;;11.77;84.85;98233.88;5096589;28;20184;-75
2021/05/16 00:42:49;;;;;;;2.67;1.70;;;;;;;11.68;85.74;98224.72;5096824;28;20232;-73
2021/05/16 00:45:17;;;;;;;1.90;1.80;;;;;;;11.68;85.75;98222.03;5096531;28;20184;-72
2021/05/16 00:47:49;;;;;;;4.43;1.73;;;;;;;11.67;86.01;98229.25;5096591;28;20283;-75
2021/05/16 00:50:16;;;;;;;3.58;1.70;;;;;;;11.79;85.35;98230.06;5095624;28;20207;-73
2021/05/16 00:52:43;;;;;;;4.03;1.90;;;;;;;11.88;84.78;98231.16;5096201;28;20247;-74
2021/05/16 00:55:11;;;;;;;4.22;2.40;;;;;;;11.79;85.17;98234.59;5096346;28;20286;-73
2021/05/16 00:57:37;;;;;;;5.07;2.15;;;;;;;12.01;84.35;98230.97;5096622;28;20499;-73
2021/05/16 01:00:04;;;;;;;2.47;1.60;;;;;;;12.04;84.04;98241.50;5095967;28;20196;-73
2021/05/16 01:02:30;;;;;;;3.05;1.60;;;;;;;12.00;84.89;98240.88;5096417;28;20199;-72
2021/05/16 01:04:57;;;;;;;3.38;2.10;;;;;;;12.06;84.89;98236.81;5096413;28;20614;-74
2021/05/16 01:07:23;;;;;;;4.43;1.80;;;;;;;12.09;84.97;98237.38;5096363;28;20268;-73
2021/05/16 01:09:50;;;;;;;2.33;1.95;;;;;;;11.98;85.92;98233.91;5096875;28;20696;-72
2021/05/16 01:12:16;;;;;;;1.98;1.42;;;;;;;12.02;85.89;98236.22;5096188;28;20247;-74
2021/05/16 01:14:44;;;;;;;6.22;2.00;;;;;;;11.94;86.41;98225.25;5095517;28;20202;-74
2021/05/16 01:17:11;;;;;;;2.20;1.98;;;;;;;11.90;87.17;98223.78;5095856;28;20192;-73
2021/05/16 01:19:38;;;;;;;4.53;1.80;;;;;;;11.92;87.29;98226.34;5096069;28;20548;-73
2021/05/16 01:22:07;;;;;;;7.13;2.05;;;;;;;11.97;86.46;98224.13;5096131;28;20184;-73
2021/05/16 01:24:37;;;;;;;4.53;1.60;;;;;;;11.83;87.13;98227.97;5095684;28;20226;-73
2021/05/16 01:27:09;;;;;;;2.30;2.10;;;;;;;11.89;86.78;98219.38;5096059;28;20231;-73
2021/05/16 01:29:35;;;;;;;2.70;1.95;;;;;;;11.83;87.61;98230.66;5095796;28;20308;-72
2021/05/16 01:32:01;;;;;;;4.70;2.30;;;;;;;11.84;88.53;98217.03;5096200;28;20263;-72
2021/05/16 01:34:27;;;;;;;6.50;2.92;;;;;;;11.81;88.67;98214.59;5095639;28;20196;-74
2021/05/16 01:36:53;;;;;;;3.30;2.55;;;;;;;11.86;89.02;98217.75;5094669;28;20540;-72
2021/05/16 01:39:20;;;;;;;3.20;2.70;;;;;;;11.83;89.39;98222.56;5095163;28;20331;-73
2021/05/16 01:41:46;;;;;;;3.30;2.63;;;;;;;11.82;89.88;98227.09;5075473;28;20215;-74
2021/05/16 01:44:15;;;;;;;3.92;2.67;;;;;;;11.98;88.91;98223.97;5074942;28;20196;-73
2021/05/16 01:46:44;;;;;;;2.80;2.60;;;;;;;11.92;89.08;98234.44;5075308;28;20180;-74
2021/05/16 01:49:10;;;;;;;3.92;2.50;;;;;;;11.91;89.25;98230.03;5075168;28;20223;-72
2021/05/16 01:51:37;;;;;;;6.15;2.70;;;;;;;11.89;90.14;98231.03;5078671;28;20187;-73
2021/05/16 01:54:06;;;;;;;5.32;2.55;;;;;;;11.95;89.00;98228.78;5095406;28;20184;-72
2021/05/16 01:56:33;;;;;;;3.75;2.35;;;;;;;11.93;89.61;98231.59;5095559;28;20238;-73
2021/05/16 01:58:59;;;;;;;3.10;2.80;;;;;;;11.87;89.96;98230.31;5095515;28;20200;-72
2021/05/16 02:01:26;;;;;;;3.55;3.05;;;;;;;11.78;90.63;98230.19;5095722;28;20199;-73
2021/05/16 02:03:54;;;;;;;6.10;3.65;;;;;;;11.92;90.82;98220.94;5095212;28;20695;-74
2021/05/16 02:06:20;;;;;;;6.28;3.08;;;;;;;12.03;89.61;98224.44;5095200;28;20713;-73
2021/05/16 02:08:46;;;;;;;4.80;3.08;;;;;;;11.97;90.28;98222.28;5094998;28;20202;-74
2021/05/16 02:11:13;;;;;;;3.30;2.60;;;;;;;12.09;89.40;98218.50;5094691;28;20298;-74
2021/05/16 02:13:41;;;;;;;4.68;3.20;;;;;;;12.12;89.67;98220.13;5094880;28;20184;-75
2021/05/16 02:16:10;;;;;;;6.55;2.80;;;;;;;11.83;90.98;98219.88;5095070;28;20610;-74
2021/05/16 02:18:36;;;;;;;4.15;2.80;;;;;;;11.93;91.52;98228.06;5094887;28;20258;-74
2021/05/16 02:21:05;;;;;;;5.32;3.13;;;;;;;11.89;92.17;98225.63;5095084;28;20619;-73
2021/05/16 02:23:31;;;;;;;6.63;3.20;;;;;;;11.83;91.84;98211.78;5094796;28;20212;-73
2021/05/16 02:25:57;;;;;;;6.22;3.50;;;;;;;11.81;92.33;98224.53;5094484;28;20196;-74
2021/05/16 02:28:23;;;;;;;6.88;3.80;;;;;;;11.79;92.55;98215.72;5095179;28;20279;-73
2021/05/16 02:30:51;;;;;;;10.27;3.47;;;;;;;11.80;93.10;98212.03;5094742;28;20294;-72
2021/05/16 02:33:17;;;;;;;6.72;4.05;;;;;;;11.83;93.50;98209.94;5095322;28;20634;-74
2021/05/16 02:35:44;;;;;;;5.95;4.00;;;;;;;11.88;93.45;98212.28;5094607;28;20610;-74
2021/05/16 02:38:10;;;;;;;6.95;4.45;;;;;;;11.88;92.18;98213.13;5094253;28;20677;-74
2021/05/16 02:40:37;;;;;;;8.05;5.18;;;;;;;11.77;92.34;98220.41;5093924;28;20199;-74
2021/05/16 02:43:03;;;;;;;8.27;5.32;;;;;;;11.77;92.11;98217.69;5094037;28;20201;-72
2021/05/16 02:45:29;;;;;;;6.53;5.00;;;;;;;11.78;92.30;98222.97;5094373;28;20267;-74
2021/05/16 02:47:56;;;;;;;9.18;5.35;;;;;;;11.62;93.45;98220.72;5094153;28;20274;-74
2021/05/16 02:50:22;;;;;;;5.78;5.00;;;;;;;11.57;93.62;98216.69;5094335;28;20291;-74
2021/05/16 02:52:48;;;;;;;5.90;5.15;;;;;;;11.58;93.97;98223.81;5094301;28;20235;-71
2021/05/16 02:55:15;;;;;;;6.75;5.40;;;;;;;11.66;93.50;98211.34;5094224;28;20271;-74
2021/05/16 02:57:41;;;;;;;6.60;5.57;;;;;;;11.64;93.56;98213.31;5094134;28;20245;-73
2021/05/16 03:00:08;;;;;;;8.27;4.97;;;;;;;11.65;93.49;98214.22;5093936;28;20283;-74
2021/05/16 03:02:34;;;;;;;7.30;4.38;;;;;;;11.74;92.73;98212.56;5094249;28;20698;-74
2021/05/16 03:05:01;;;;;;;5.50;4.55;;;;;;;11.66;92.72;98213.22;5094243;28;20231;-75
2021/05/16 03:07:27;;;;;;;4.68;4.18;;;;;;;11.75;93.05;98204.34;5093808;28;20184;-73
2021/05/16 03:09:54;;;;;;;5.00;3.50;;;;;;;11.77;93.01;98202.38;5094033;28;20295;-73
2021/05/16 03:12:20;;;;;;;8.65;4.30;;;;;;;11.82;91.56;98200.13;5093870;28;20192;-75
2021/05/16 03:14:46;;;;;;;6.00;4.32;;;;;;;11.80;92.37;98207.53;5094475;28;20184;-74
2021/05/16 03:17:12;;;;;;;8.10;3.55;;;;;;;11.87;91.94;98207.81;5094170;28;20614;-71
2021/05/16 03:19:39;;;;;;;4.70;3.42;;;;;;;11.84;91.74;98198.16;5093920;28;20227;-75
2021/05/16 03:22:06;;;;;;;6.88;3.55;;;;;;;11.70;93.03;98206.56;5094072;28;20188;-74
2021/05/16 03:24:32;;;;;;;4.80;3.25;;;;;;;11.46;96.55;98209.50;5093572;28;20231;-72
2021/05/16 03:26:58;;;;;;;4.78;3.25;;;;;;;11.50;97.04;98205.56;5093523;28;20188;-74
2021/05/16 03:29:24;;;;;;;3.95;2.78;;;;;;;11.58;96.29;98208.47;5093634;28;20630;-74
2021/05/16 03:31:50;;;;;;;4.38;2.75;;;;;;;11.61;96.74;98210.06;5093976;28;20184;-73
2021/05/16 03:34:16;;;;;;;5.97;2.50;;;;;;;11.49;96.21;98209.25;5094052;28;20192;-74
2021/05/16 03:36:42;;;;;;;3.75;2.25;;;;;;;11.41;95.98;98209.03;5093661;28;20281;-73
2021/05/16 03:39:09;;;;;;;5.10;2.42;;;;;;;11.41;96.08;98209.03;5093241;28;20236;-73
2021/05/16 03:41:35;;;;;;;4.97;2.60;;;;;;;11.52;95.99;98208.97;5094418;28;20229;-74
2021/05/16 03:44:02;;;;;;;3.60;2.60;;;;;;;11.45;95.87;98213.19;5093406;28;20184;-74
2021/05/16 03:46:28;;;;;;;11.38;2.78;;;;;;;11.43;96.70;98213.31;5093324;28;20303;-74
2021/05/16 03:48:54;;;;;;;5.40;2.75;;;;;;;11.39;96.35;98208.28;5093453;28;20180;-74
2021/05/16 03:51:20;;;;;;;3.60;2.17;;;;;;;11.53;98.40;98213.38;5093713;28;20208;-72
2021/05/16 03:53:46;;;;;;;6.40;2.35;;;;;;;11.52;97.92;98216.22;5093641;28;20268;-72
2021/05/16 03:56:13;;;;;;;7.00;2.72;;;;;;;11.29;97.83;98210.91;5093647;28;20714;-74
2021/05/16 03:58:39;;;;;;;3.53;2.50;;;;;;;11.31;98.78;98210.78;5093359;28;20211;-73
2021/05/16 04:01:05;;;;;;;6.25;2.30;;;;;;;11.22;99.56;98212.41;5097708;28;20636;-72
2021/05/16 04:03:33;;;;;;;4.93;2.30;;;;;;;11.29;100.00;98213.59;5097466;28;20222;-74
2021/05/16 04:05:59;;;;;;;6.57;2.40;;;;;;;11.23;99.76;98214.97;5097455;28;20227;-73
2021/05/16 04:08:25;;;;;;;4.28;2.40;;;;;;;11.40;99.60;98218.97;5097405;28;20210;-74
2021/05/16 04:10:52;;;;;;;4.97;1.83;;;;;;;11.44;98.90;98217.72;5097049;28;20291;-74
2021/05/16 04:13:19;;;;;;;5.43;1.88;;;;;;;11.48;98.53;98221.00;5097344;28;20272;-73
2021/05/16 04:15:45;;;;;;;3.55;2.08;;;;;;;11.54;97.87;98228.59;5097736;28;20184;-74
2021/05/16 04:18:11;;;;;;;3.33;1.98;;;;;;;11.46;97.84;98226.53;5097317;28;20271;-73
2021/05/16 04:20:38;;;;;;;6.38;2.53;;;;;;;11.38;100.00;98229.00;5097253;28;20275;-73
2021/05/16 04:23:04;;;;;;;3.60;2.10;;;;;;;11.19;100.00;98234.19;5097741;28;20184;-74
2021/05/16 04:25:30;;;;;;;2.88;1.98;;;;;;;11.30;100.00;98228.78;5097569;28;20357;-72
2021/05/16 04:27:56;;;;;;;2.72;1.98;;;;;;;11.37;100.00;98224.59;5096696;28;20214;-74
2021/05/16 04:30:23;;;;;;;2.65;2.00;;;;;;;11.33;100.00;98227.66;5097833;28;20262;-74
2021/05/16 04:32:49;;;;;;;4.38;2.03;;;;;;;11.39;100.00;98232.56;5096989;28;20198;-72
2021/05/16 04:35:16;;;;;;;3.28;2.08;;;;;;;11.22;100.00;98237.50;5096357;28;20202;-74
2021/05/16 04:37:42;;;;;;;4.57;2.10;;;;;;;11.32;100.00;98229.50;5096611;28;20269;-74
2021/05/16 04:40:08;;;;;;;4.30;1.90;;;;;;;11.15;100.00;98220.13;5097107;28;20227;-73
2021/05/16 04:42:34;;;;;;;4.75;1.90;;;;;;;11.27;100.00;98227.19;5096943;28;20600;-73
2021/05/16 04:45:01;;;;;;;2.85;1.70;;;;;;;11.25;100.00;98226.47;5096397;28;20240;-73
2021/05/16 04:47:28;;;;;;;5.35;2.00;;;;;;;11.27;99.58;98227.19;5096451;28;20235;-75
2021/05/16 04:49:54;;;;;;;9.40;1.85;;;;;;;11.33;99.39;98233.94;5096605;28;20258;-72
2021/05/16 04:52:20;;;;;;;4.15;1.30;;;;;;;11.27;97.65;98232.59;5096345;28;20324;-74
2021/05/16 04:54:46;;;;;;;4.07;1.80;;;;;;;11.26;98.31;98230.88;5096332;28;20195;-74
2021/05/16 04:57:12;;;;;;;3.90;1.52;;;;;;;11.37;98.43;98226.44;5096501;28;20207;-74
2021/05/16 04:59:39;;;;;;;2.88;1.55;;;;;;;11.46;98.05;98228.34;5097076;28;20188;-73
2021/05/16 05:02:07;;;;;;;2.38;1.33;;;;;;;11.66;96.98;98232.06;5096528;28;20188;-74
2021/05/16 05:04:36;;;;;;;2.45;1.35;;;;;;;11.76;95.66;98226.75;5096096;28;20211;-73
2021/05/16 05:07:04;;;;;;;3.90;1.70;;;;;;;11.78;95.52;98233.75;5096306;28;20712;-73
2021/05/16 05:09:30;;;;;;;1.90;1.38;;;;;;;11.83;94.82;98238.75;5094616;28;20216;-74
2021/05/16 05:11:56;;;;;;;4.68;1.70;;;;;;;11.95;94.60;98234.19;5095867;28;20231;-73
2021/05/16 05:14:23;;;;;;;3.38;1.63;;;;;;;12.05;93.65;98235.97;5096173;28;20273;-74
2021/05/16 05:16:49;;;;;;;4.07;1.73;;;;;;;12.20;93.03;98239.19;5096129;28;20184;-72
2021/05/16 05:19:15;;;;;;;3.90;2.10;;;;;;;12.33;93.10;98230.03;5096237;28;20287;-73
2021/05/16 05:21:42;;;;;;;4.55;2.50;;;;;;;12.38;93.00;98228.63;5095647;28;20287;-74
2021/05/16 05:24:09;;;;;;;6.72;3.05;;;;;;;12.50;90.28;98234.78;5095843;28;20617;-72
2021/05/16 05:26:35;;;;;;;4.28;3.03;;;;;;;12.64;90.19;98239.84;5095892;28;20282;-73
2021/05/16 05:29:02;;;;;;;5.05;2.90;;;;;;;12.70;88.85;98233.88;5095454;28;20272;-73
2021/05/16 05:31:28;;;;;;;5.57;3.70;;;;;;;12.70;88.95;98236.59;5095850;28;20216;-75
2021/05/16 05:33:54;;;;;;;7.60;3.38;;;;;;;12.57;88.20;98240.50;5096209;28;20223;-72
2021/05/16 05:36:20;;;;;;;6.68;4.05;;;;;;;12.44;90.22;98233.50;5095466;28;20291;-72
2021/05/16 05:38:47;;;;;;;5.80;4.13;;;;;;;12.57;90.06;98237.81;5095172;28;20235;-73
2021/05/16 05:41:14;;;;;;;4.53;3.60;;;;;;;12.65;90.36;98240.69;5095612;28;20180;-72
2021/05/16 05:43:40;;;;;;;6.53;4.28;;;;;;;12.87;88.01;98234.25;5095656;28;20643;-75
2021/05/16 05:46:07;;;;;;;7.20;4.70;;;;;;;12.93;86.94;98234.56;5095434;28;20264;-73
2021/05/16 05:48:33;;;;;;;7.13;4.20;;;;;;;13.09;87.04;98234.03;5095552;28;20205;-72
2021/05/16 05:50:59;;;;;;;9.40;4.40;;;;;;;13.28;86.49;98235.09;5095418;28;20654;-73
2021/05/16 05:53:25;;;;;;;11.23;5.97;;;;;;;13.29;84.60;98234.09;5095159;28;20186;-71
2021/05/16 05:55:52;;;;;;;8.05;4.55;;;;;;;13.32;85.12;98229.28;5095292;28;20602;-72
2021/05/16 05:58:21;;;;;;;6.93;4.15;;;;;;;13.48;84.77;98233.28;5095373;28;20185;-73
2021/05/16 06:00:47;;;;;;;8.40;4.70;;;;;;;13.36;83.39;98229.81;5095363;28;20234;-72
2021/05/16 06:03:13;;;;;;;12.43;4.88;;;;;;;13.32;82.60;98233.84;5095364;28;20243;-72
2021/05/16 06:05:39;;;;;;;6.18;4.65;;;;;;;13.28;83.82;98238.66;5095188;28;20219;-72
2021/05/16 06:08:05;;;;;;;11.95;5.05;;;;;;;13.37;82.62;98245.06;5095744;28;20198;-72
2021/05/16 06:10:32;;;;;;;6.63;3.95;;;;;;;13.32;83.29;98247.34;5094815;28;20291;-72
2021/05/16 06:12:59;;;;;;;8.95;4.10;;;;;;;12.98;84.08;98238.66;5095647;28;20577;-73
2021/05/16 06:15:25;;;;;;;6.50;4.05;;;;;;;12.92;84.64;98242.78;5094703;28;20250;-72
2021/05/16 06:17:51;;;;;;;6.38;4.45;;;;;;;12.89;85.51;98243.94;5095348;28;20595;-73
2021/05/16 06:20:17;;;;;;;8.75;4.10;;;;;;;12.95;85.75;98245.22;5094397;28;20196;-73
2021/05/16 06:22:43;;;;;;;7.40;4.20;;;;;;;12.97;85.95;98235.13;5094340;28;20211;-73
2021/05/16 06:25:10;;;;;;;7.30;4.53;;;;;;;13.23;84.47;98240.00;5094796;28;20195;-72
2021/05/16 06:27:37;;;;;;;6.88;3.72;;;;;;;13.24;82.55;98249.84;5095246;28;20208;-73
2021/05/16 06:30:05;;;;;;;6.10;3.83;;;;;;;13.36;82.62;98251.47;5094844;28;20652;-72
2021/05/16 06:32:31;;;;;;;11.27;3.67;;;;;;;13.05;84.23;98256.91;5093967;28;20699;-73
2021/05/16 06:34:57;;;;;;;8.15;3.70;;;;;;;13.17;84.16;98241.44;5094664;28;20233;-74
2021/05/16 06:37:23;;;;;;;6.72;3.72;;;;;;;13.03;83.43;98245.38;5094656;28;20189;-73
2021/05/16 06:39:49;;;;;;;6.78;3.30;;;;;;;13.00;84.43;98245.69;5094012;28;20693;-74
2021/05/16 06:42:15;;;;;;;6.03;2.97;;;;;;;13.17;83.99;98252.25;5094592;28;20630;-71
2021/05/16 06:44:42;;;;;;;9.55;3.83;;;;;;;13.40;81.59;98252.91;5094536;28;20256;-72
2021/05/16 06:47:08;;;;;;;8.15;3.05;;;;;;;13.50;80.98;98247.50;5094430;28;20647;-71
2021/05/16 06:49:36;;;;;;;6.38;3.50;;;;;;;13.83;80.75;98250.78;5094355;28;20248;-72
2021/05/16 06:52:03;;;;;;;8.18;2.92;;;;;;;14.02;78.56;98252.63;5093894;28;20196;-73
2021/05/16 06:54:29;;;;;;;4.15;3.00;;;;;;;14.20;78.91;98261.75;5094049;28;20272;-73
2021/05/16 06:56:56;;;;;;;11.18;4.25;;;;;;;14.04;79.61;98267.75;5094150;28;20237;-72
2021/05/16 06:59:22;;;;;;;6.55;3.53;;;;;;;13.89;80.35;98269.16;5094164;28;20235;-72
2021/05/16 07:01:48;;;;;;;5.82;2.67;;;;;;;13.83;79.17;98253.50;5094316;28;20247;-73
2021/05/16 07:04:15;;;;;;;9.55;3.60;;;;;;;13.73;80.85;98253.50;5094028;28;20280;-72
2021/05/16 07:06:41;;;;;;;4.93;3.10;;;;;;;13.61;80.36;98271.69;5094307;28;20285;-72
2021/05/16 07:09:07;;;;;;;8.57;3.50;;;;;;;13.77;80.43;98258.50;5093875;28;20275;-73
2021/05/16 07:11:33;;;;;;;6.90;3.00;;;;;;;13.86;80.09;98261.31;5093963;28;20200;-73
2021/05/16 07:14:02;;;;;;;10.63;3.42;;;;;;;13.64;79.44;98260.63;5094184;28;20204;-73
2021/05/16 07:16:29;;;;;;;6.07;3.38;;;;;;;13.88;78.18;98262.88;5093755;28;20221;-72
2021/05/16 07:18:55;;;;;;;6.38;3.35;;;;;;;13.98;77.82;98261.03;5093439;28;20196;-73
2021/05/16 07:21:22;;;;;;;10.00;3.97;;;;;;;13.80;79.58;98265.47;5093907;28;20665;-73
2021/05/16 07:23:48;;;;;;;6.97;3.30;;;;;;;14.07;77.19;98261.19;5093671;28;20191;-75
2021/05/16 07:26:14;;;;;;;11.23;3.17;;;;;;;14.00;75.47;98262.72;5093952;28;20196;-74
2021/05/16 07:28:40;;;;;;;6.45;2.75;;;;;;;14.03;75.13;98248.94;5094109;28;20206;-74
2021/05/16 07:31:06;;;;;;;9.13;3.75;;;;;;;13.84;76.04;98244.38;5094001;28;20252;-72
2021/05/16 07:33:32;;;;;;;6.85;2.97;;;;;;;13.84;76.79;98244.38;5093144;28;20185;-73
2021/05/16 07:35:59;;;;;;;9.15;4.22;;;;;;;13.87;77.24;98244.97;5097631;28;20284;-75
2021/05/16 07:38:26;;;;;;;6.57;2.80;;;;;;;14.05;75.73;98242.38;5097495;28;20219;-73
2021/05/16 07:40:52;;;;;;;7.80;3.35;;;;;;;13.98;76.26;98243.97;5097995;28;20216;-73
2021/05/16 07:43:18;;;;;;;9.70;3.63;;;;;;;14.23;75.00;98250.63;5097367;28;20192;-73
2021/05/16 07:45:44;;;;;;;12.48;2.80;;;;;;;14.41;75.03;98258.00;5098270;28;20201;-74
2021/05/16 07:48:11;;;;;;;7.00;3.50;;;;;;;14.48;75.24;98245.59;5097914;28;20209;-74
2021/05/16 07:50:37;;;;;;;8.13;3.17;;;;;;;14.65;74.42;98252.94;5097322;28;20260;-72
2021/05/16 07:53:04;;;;;;;10.20;3.53;;;;;;;14.53;72.97;98256.81;5097432;28;20618;-72
2021/05/16 07:55:31;;;;;;;12.18;3.70;;;;;;;14.30;74.53;98251.75;5097486;28;20270;-72
2021/05/16 07:57:57;;;;;;;5.03;3.17;;;;;;;14.05;75.52;98252.34;5097398;28;20213;-73
2021/05/16 08:00:23;;;;;;;11.30;4.10;;;;;;;14.34;75.21;98249.59;5097725;28;20290;-74
2021/05/16 08:02:49;;;;;;;9.40;3.10;;;;;;;14.00;72.11;98254.63;5096832;28;20233;-72
2021/05/16 08:05:15;;;;;;;13.90;3.67;;;;;;;13.75;74.50;98262.34;5097361;28;20240;-73
2021/05/16 08:07:41;;;;;;;6.35;2.53;;;;;;;13.74;73.52;98252.50;5097330;28;20240;-74
2021/05/16 08:10:09;;;;;;;7.25;2.80;;;;;;;13.94;72.00;98248.78;5096707;28;20221;-73
2021/05/16 08:12:36;;;;;;;8.07;2.50;;;;;;;14.20;71.19;98242.81;5096901;28;20191;-73
2021/05/16 08:15:02;;;;;;;6.63;2.67;;;;;;;14.36;70.55;98251.16;5097250;28;20646;-73
2021/05/16 08:17:28;;;;;;;8.00;3.10;;;;;;;14.64;69.66;98255.81;5096550;28;20285;-74
2021/05/16 08:19:54;;;;;;;10.60;2.75;;;;;;;14.41;70.76;98260.72;5096832;28;20275;-74
2021/05/16 08:22:21;;;;;;;16.33;3.70;;;;;;;14.35;69.54;98246.72;5097326;28;20204;-72
2021/05/16 08:24:47;;;;;;;10.43;2.80;;;;;;;15.00;66.86;98254.09;5097087;28;20678;-73
2021/05/16 08:27:13;;;;;;;14.82;3.25;;;;;;;15.30;66.96;98239.38;5097257;28;20200;-73
2021/05/16 08:29:40;;;;;;;6.65;3.40;;;;;;;15.46;66.92;98237.84;5097501;28;20637;-74
2021/05/16 08:32:07;;;;;;;9.43;2.42;;;;;;;15.88;65.24;98240.00;5096101;28;20297;-74
2021/05/16 08:34:34;;;;;;;7.28;2.40;;;;;;;16.26;62.65;98239.66;5096329;28;20586;-73
2021/05/16 08:37:01;;;;;;;7.05;2.47;;;;;;;16.27;61.52;98248.63;5096280;28;20199;-75
2021/05/16 08:39:27;;;;;;;8.57;2.42;;;;;;;15.37;64.33;98232.34;5096368;28;20329;-74
2021/05/16 08:41:54;;;;;;;7.25;2.60;;;;;;;15.49;65.72;98230.28;5096600;28;20182;-75
2021/05/16 08:44:23;;;;;;;9.63;3.33;;;;;;;15.73;63.24;98236.97;5096618;28;20629;-74
2021/05/16 08:46:51;;;;;;;10.18;2.85;;;;;;;16.25;61.64;98234.34;5096073;28;20244;-73
2021/05/16 08:49:17;;;;;;;6.68;2.45;;;;;;;16.64;61.11;98242.97;5096719;28;20183;-74
2021/05/16 08:51:45;;;;;;;4.28;2.58;;;;;;;16.62;61.07;98238.66;5096963;28;20204;-72
2021/05/16 08:54:12;;;;;;;6.57;3.00;;;;;;;16.79;60.50;98242.34;5096057;28;20202;-73
2021/05/16 08:56:38;;;;;;;7.78;2.72;;;;;;;16.53;61.07;98240.50;5096319;28;20246;-73
2021/05/16 08:59:04;;;;;;;5.82;2.90;;;;;;;16.32;61.93;98245.44;5096403;28;20646;-74
2021/05/16 09:01:36;;;;;;;5.82;2.47;;;;;;;16.09;62.50;98245.09;5096153;28;20196;-73
2021/05/16 09:04:28;;;;;;;5.25;2.50;;;;;;;16.29;62.75;98245.78;5095737;28;20192;-73
2021/05/16 09:06:56;;;;;;;9.60;2.90;;;;;;;16.27;63.91;98259.50;5096272;28;20606;-74
2021/05/16 09:09:26;;;;;;;5.50;2.63;;;;;;;15.37;67.92;98256.75;5096302;28;20688;-72
2021/05/16 09:11:57;;;;;;;8.57;2.60;;;;;;;15.16;68.09;98265.16;5096140;28;20667;-73
2021/05/16 09:14:43;;;;;;;8.27;2.42;;;;;;;15.17;69.97;98257.84;5095944;28;20218;-72
2021/05/16 09:17:26;;;;;;;6.50;2.83;;;;;;;14.84;70.74;98260.16;5096589;28;20232;-74
2021/05/16 09:19:56;;;;;;;9.27;2.67;;;;;;;14.77;70.32;98249.06;5096088;28;20191;-72
2021/05/16 09:22:49;;;;;;;6.50;2.40;;;;;;;14.62;72.64;98258.69;5096168;28;20209;-71
2021/05/16 09:25:18;;;;;;;10.27;2.95;;;;;;;15.04;72.47;98257.34;5095922;28;20200;-73
2021/05/16 09:27:46;;;;;;;10.52;3.53;;;;;;;15.02;71.37;98247.53;5095883;28;20725;-70
2021/05/16 09:30:33;;;;;;;7.05;2.97;;;;;;;15.54;69.68;98238.81;5096255;28;20314;-73
2021/05/16 09:33:02;;;;;;;13.25;3.13;;;;;;;15.57;69.21;98243.06;5094957;28;20204;-72
2021/05/16 09:35:50;;;;;;;10.32;3.45;;;;;;;15.21;70.13;98248.44;5095636;28;20293;-72
2021/05/16 09:38:19;;;;;;;8.13;2.78;;;;;;;14.89;70.19;98236.19;5090638;28;20292;-73
2021/05/16 09:40:48;;;;;;;8.45;3.08;;;;;;;15.33;69.76;98233.66;5095901;28;20187;-74
2021/05/16 09:43:17;;;;;;;8.30;3.30;;;;;;;15.60;67.85;98229.19;5095762;28;20197;-73
2021/05/16 09:45:55;;;;;;;3.88;2.78;;;;;;;15.96;65.89;98231.91;5095610;28;20190;-73
2021/05/16 09:48:36;;;;;;;4.82;2.67;;;;;;;16.44;64.77;98228.75;5095623;28;20226;-73
2021/05/16 09:51:18;;;;;;;6.18;2.60;;;;;;;17.00;62.03;98217.50;5095059;28;20223;-72
2021/05/16 09:53:57;;;;;;;6.55;2.70;;;;;;;17.53;58.48;98232.63;5095411;28;20590;-71
2021/05/16 09:56:25;;;;;;;10.32;3.42;;;;;;;17.01;60.02;98219.22;5094452;28;20294;-74
2021/05/16 09:58:52;;;;;;;6.47;3.45;;;;;;;16.85;58.80;98214.56;5094753;28;20270;-73
2021/05/16 10:01:20;;;;;;;6.28;2.30;;;;;;;16.51;59.64;98222.63;5096137;28;20278;-71
2021/05/16 10:03:48;;;;;;;5.40;2.60;;;;;;;16.50;59.95;98229.09;5094730;28;20188;-74
2021/05/16 10:06:16;;;;;;;7.82;2.97;;;;;;;16.32;60.64;98227.28;5094983;28;20190;-73
2021/05/16 10:08:45;;;;;;;7.22;2.70;;;;;;;16.54;59.28;98225.06;5094669;28;20270;-71
2021/05/16 10:11:12;;;;;;;7.28;2.85;;;;;;;15.91;60.35;98229.69;5094431;28;20659;-73
2021/05/16 10:13:42;;;;;;;9.23;3.05;;;;;;;16.27;59.32;98227.75;5094413;28;20195;-73
2021/05/16 10:16:14;;;;;;;6.20;2.50;;;;;;;15.97;58.93;98220.91;5094709;28;20274;-73
2021/05/16 10:18:41;;;;;;;8.80;2.97;;;;;;;15.72;60.07;98214.44;5094563;28;20180;-74
2021/05/16 10:21:07;;;;;;;4.32;2.25;;;;;;;15.82;60.70;98212.47;5094068;28;20183;-72
2021/05/16 10:23:36;;;;;;;5.07;2.28;;;;;;;16.10;60.29;98209.66;5094744;28;20277;-73
2021/05/16 10:26:22;;;;;;;8.32;2.47;;;;;;;16.69;58.99;98204.44;5094068;28;20577;-72
2021/05/16 10:28:57;;;;;;;8.90;2.58;;;;;;;16.52;58.21;98195.31;5094513;28;20191;-73
2021/05/16 10:31:52;;;;;;;5.05;2.03;;;;;;;16.86;58.18;98178.19;5094545;28;20253;-72
2021/05/16 10:34:41;;;;;;;6.45;2.30;;;;;;;17.03;56.95;98174.53;5094433;28;20271;-74
2021/05/16 10:37:10;;;;;;;4.30;2.25;;;;;;;16.99;55.86;98169.59;5093884;28;20193;-74
2021/05/16 10:39:53;;;;;;;5.70;2.22;;;;;;;17.21;55.00;98174.41;5093834;28;20224;-74
2021/05/16 10:42:21;;;;;;;4.95;2.00;;;;;;;17.79;53.70;98174.50;5093880;28;20192;-75
2021/05/16 10:45:02;;;;;;;4.88;2.50;;;;;;;18.13;52.50;98169.75;5094389;28;20773;-74
2021/05/16 10:47:56;;;;;;;6.68;2.20;;;;;;;17.96;52.56;98167.22;5094363;28;20203;-72
2021/05/16 10:50:47;;;;;;;4.93;1.92;;;;;;;17.90;52.83;98161.41;5093998;28;20661;-74
2021/05/16 10:53:20;;;;;;;8.20;2.00;;;;;;;18.69;50.48;98160.75;5090698;28;20669;-74
2021/05/16 10:55:49;;;;;;;6.70;2.55;;;;;;;18.83;50.11;98159.19;5094109;28;20193;-73
2021/05/16 10:58:49;;;;;;;5.47;2.33;;;;;;;18.46;50.24;98156.06;5094213;28;20232;-73
2021/05/16 11:01:17;;;;;;;6.47;2.00;;;;;;;18.22;51.63;98140.59;5089776;28;20201;-74
2021/05/16 11:03:48;;;;;;;5.32;1.90;;;;;;;17.63;52.29;98131.78;5094388;28;20599;-74
2021/05/16 11:06:17;;;;;;;6.30;2.72;;;;;;;17.19;53.94;98138.38;5093079;28;20564;-73
2021/05/16 11:09:09;;;;;;;4.05;1.95;;;;;;;17.51;52.55;98128.56;5093449;28;20180;-74
2021/05/16 11:11:38;;;;;;;11.25;2.45;;;;;;;17.43;52.38;98123.09;5094174;28;20295;-73
2021/05/16 11:14:14;;;;;;;9.30;2.40;;;;;;;17.85;50.64;98133.84;5093286;28;20210;-72
2021/05/16 11:16:45;;;;;;;5.13;1.65;;;;;;;17.91;48.33;98116.84;5093492;28;20219;-72
2021/05/16 11:19:11;;;;;;;6.07;1.80;;;;;;;18.70;47.12;98107.91;5093894;28;20188;-73
2021/05/16 11:21:37;;;;;;;5.80;2.00;;;;;;;19.33;45.74;98109.66;5093775;28;20653;-73
2021/05/16 11:24:05;;;;;;;2.60;1.80;;;;;;;19.73;44.90;98118.56;5093696;28;20241;-74
2021/05/16 11:26:31;;;;;;;4.50;1.95;;;;;;;19.62;45.26;98126.31;5093880;28;20254;-74
2021/05/16 11:28:59;;;;;;;3.58;1.70;;;;;;;19.65;45.20;98110.44;5093570;28;20209;-73
2021/05/16 11:31:27;;;;;;;5.88;1.50;;;;;;;18.81;46.11;98102.09;5093587;28;20690;-73
2021/05/16 11:33:55;;;;;;;3.50;2.03;;;;;;;19.06;46.27;98107.44;5092607;28;20221;-74
2021/05/16 11:36:23;;;;;;;3.80;2.00;;;;;;;19.46;45.39;98102.75;5093323;28;20190;-73